createdAt,value
2018-11-22T00:00:58.256Z,99.2
2018-11-22T00:01:58.249Z,99.1
2018-11-22T00:02:58.513Z,99.01
2018-11-22T00:03:58.490Z,99.2
2018-11-22T00:04:58.479Z,98.72
2018-11-22T00:05:58.482Z,98.72
2018-11-22T00:06:58.467Z,98.91
2018-11-22T00:07:58.207Z,98.91
2018-11-22T00:08:58.462Z,98.63
2018-11-22T00:09:58.189Z,98.63
2018-11-22T00:10:58.428Z,98.44
2018-11-22T00:11:58.156Z,99.1
2018-11-22T00:12:58.401Z,98.82
2018-11-22T00:13:58.140Z,98.54
2018-11-22T00:14:58.409Z,98.54
2018-11-22T00:15:58.372Z,99.2
2018-11-22T00:16:58.110Z,98.44
2018-11-22T00:17:58.362Z,98.91
2018-11-22T00:18:58.353Z,98.91
2018-11-22T00:19:58.332Z,98.72
2018-11-22T00:20:58.333Z,98.35
2018-11-22T00:21:58.313Z,98.72
2018-11-22T00:22:58.301Z,98.54
2018-11-22T00:23:58.304Z,98.63
2018-11-22T00:24:58.287Z,98.91
2018-11-22T00:25:58.042Z,99.1
2018-11-22T00:26:58.267Z,98.44
2018-11-22T00:27:58.256Z,98.82
2018-11-22T00:28:58.262Z,98.82
2018-11-22T00:29:58.237Z,97.87
2018-11-22T00:30:58.234Z,97.87
2018-11-22T00:31:58.672Z,97.97
2018-11-22T00:32:58.204Z,98.44
2018-11-22T00:33:58.204Z,98.25
2018-11-22T00:34:58.202Z,98.72
2018-11-22T00:35:57.927Z,98.82
2018-11-22T00:36:57.924Z,98.63
2018-11-22T00:37:58.200Z,98.63
2018-11-22T00:38:58.145Z,99.1
2018-11-22T00:39:57.885Z,98.72
2018-11-22T00:40:58.143Z,99.01
2018-11-22T00:41:58.120Z,99.01
2018-11-22T00:42:58.140Z,99.58
2018-11-22T00:43:57.846Z,99.39
2018-11-22T00:44:58.093Z,99.01
2018-11-22T00:45:58.085Z,98.72
2018-11-22T00:46:58.078Z,98.54
2018-11-22T00:47:57.815Z,97.78
2018-11-22T00:48:57.807Z,98.91
2018-11-22T00:49:58.305Z,98.44
2018-11-22T00:50:57.783Z,98.63
2018-11-22T00:51:58.030Z,99.1
2018-11-22T00:52:58.009Z,99.1
2018-11-22T00:53:58.004Z,98.63
2018-11-22T00:54:58.005Z,99.58
2018-11-22T00:55:57.986Z,99.2
2018-11-22T00:56:57.978Z,98.63
2018-11-22T00:57:57.973Z,98.35
2018-11-22T00:58:57.694Z,99.67
2018-11-22T00:59:57.973Z,98.82
2018-11-22T01:00:57.937Z,99.48
2018-11-22T01:01:57.921Z,99.1
2018-11-22T01:02:57.662Z,99.86
2018-11-22T01:03:57.903Z,99.58
2018-11-22T01:04:57.898Z,99.58
2018-11-22T01:05:57.893Z,99.99
2018-11-22T01:06:57.632Z,99.29
2018-11-22T01:07:57.865Z,99.29
2018-11-22T01:08:57.854Z,99.01
2018-11-22T01:09:57.852Z,98.44
2018-11-22T01:10:57.839Z,98.72
2018-11-22T01:11:57.888Z,99.29
2018-11-22T01:12:57.814Z,99.29
2018-11-22T01:13:57.814Z,99.48
2018-11-22T01:14:57.809Z,99.67
2018-11-22T01:15:57.786Z,99.77
2018-11-22T01:16:57.533Z,99.29
2018-11-22T01:17:57.799Z,99.29
2018-11-22T01:18:57.795Z,99.77
2018-11-22T01:19:57.769Z,99.58
2018-11-22T01:20:57.750Z,99.2
2018-11-22T01:21:57.740Z,98.54
2018-11-22T01:22:57.732Z,98.91
2018-11-22T01:23:57.723Z,98.16
2018-11-22T01:24:57.453Z,98.06
2018-11-22T01:25:57.697Z,97.78
2018-11-22T01:26:57.684Z,98.63
2018-11-22T01:27:57.418Z,98.25
2018-11-22T01:28:57.668Z,98.54
2018-11-22T01:29:57.658Z,98.54
2018-11-22T01:30:57.653Z,98.35
2018-11-22T01:31:57.651Z,99.1
2018-11-22T01:32:57.371Z,98.72
2018-11-22T01:33:57.621Z,98.44
2018-11-22T01:34:57.624Z,98.54
2018-11-22T01:35:57.591Z,98.54
2018-11-22T01:36:57.590Z,98.91
2018-11-22T01:37:57.327Z,98.54
2018-11-22T01:38:57.577Z,99.1
2018-11-22T01:39:57.719Z,98.91
2018-11-22T01:40:57.292Z,98.63
2018-11-22T01:41:57.295Z,98.44
2018-11-22T01:42:57.527Z,99.1
2018-11-22T01:43:57.520Z,99.2
2018-11-22T01:44:57.524Z,98.72
2018-11-22T01:45:57.550Z,98.44
2018-11-22T01:46:57.314Z,99.1
2018-11-22T01:47:57.478Z,98.35
2018-11-22T01:48:57.504Z,99.1
2018-11-22T01:49:57.637Z,98.54
2018-11-22T01:50:57.459Z,98.91
2018-11-22T01:51:57.185Z,98.63
2018-11-22T01:52:57.191Z,99.1
2018-11-22T01:53:57.446Z,98.54
2018-11-22T01:54:57.174Z,98.72
2018-11-22T01:55:57.418Z,98.44
2018-11-22T01:56:57.176Z,98.63
2018-11-22T01:57:57.140Z,98.91
2018-11-22T01:58:57.381Z,98.44
2018-11-22T01:59:57.119Z,98.72
2018-11-22T02:00:57.103Z,98.72
2018-11-22T02:01:57.359Z,98.63
2018-11-22T02:02:57.101Z,98.06
2018-11-22T02:03:57.090Z,97.87
2018-11-22T02:04:57.075Z,97.87
2018-11-22T02:05:57.079Z,98.72
2018-11-22T02:06:57.306Z,98.63
2018-11-22T02:07:57.046Z,98.06
2018-11-22T02:08:57.031Z,97.87
2018-11-22T02:09:57.020Z,97.87
2018-11-22T02:10:57.023Z,98.35
2018-11-22T02:11:57.255Z,98.44
2018-11-22T02:12:56.985Z,98.91
2018-11-22T02:13:56.985Z,98.63
2018-11-22T02:14:57.229Z,98.44
2018-11-22T02:15:56.957Z,99.1
2018-11-22T02:16:57.224Z,98.54
2018-11-22T02:17:56.936Z,98.44
2018-11-22T02:18:57.177Z,98.91
2018-11-22T02:19:57.187Z,99.48
2018-11-22T02:20:57.161Z,99.48
2018-11-22T02:21:57.170Z,99.01
2018-11-22T02:22:57.150Z,99.29
2018-11-22T02:23:57.162Z,99.2
2018-11-22T02:24:57.122Z,98.91
2018-11-22T02:25:57.108Z,99.2
2018-11-22T02:26:56.851Z,98.44
2018-11-22T02:27:56.864Z,98.44
2018-11-22T02:28:56.829Z,98.72
2018-11-22T02:29:57.094Z,98.82
2018-11-22T02:30:57.072Z,98.91
2018-11-22T02:31:56.806Z,98.25
2018-11-22T02:32:56.783Z,98.63
2018-11-22T02:33:57.033Z,98.16
2018-11-22T02:34:57.038Z,98.44
2018-11-22T02:35:57.018Z,97.68
2018-11-22T02:36:57.021Z,98.54
2018-11-22T02:37:57.018Z,98.35
2018-11-22T02:38:56.746Z,98.54
2018-11-22T02:39:56.970Z,98.72
2018-11-22T02:40:56.963Z,98.35
2018-11-22T02:41:56.696Z,99.1
2018-11-22T02:42:56.699Z,98.54
2018-11-22T02:43:56.936Z,98.63
2018-11-22T02:44:56.937Z,98.44
2018-11-22T02:45:56.919Z,98.35
2018-11-22T02:46:56.907Z,98.44
2018-11-22T02:47:56.642Z,98.72
2018-11-22T02:48:56.641Z,99.2
2018-11-22T02:49:56.882Z,99.67
2018-11-22T02:50:56.875Z,99.86
2018-11-22T02:51:56.864Z,99.58
2018-11-22T02:52:56.856Z,98.63
2018-11-22T02:53:56.848Z,98.35
2018-11-22T02:54:56.834Z,98.44
2018-11-22T02:55:56.831Z,98.54
2018-11-22T02:56:56.550Z,98.44
2018-11-22T02:57:56.796Z,98.72
2018-11-22T02:58:56.790Z,98.54
2018-11-22T02:59:56.789Z,98.91
2018-11-22T03:00:56.780Z,99.1
2018-11-22T03:01:56.514Z,98.63
2018-11-22T03:02:56.752Z,98.72
2018-11-22T03:03:56.774Z,98.25
2018-11-22T03:04:56.745Z,98.91
2018-11-22T03:05:56.467Z,98.06
2018-11-22T03:06:56.711Z,97.97
2018-11-22T03:07:56.699Z,97.49
2018-11-22T03:08:56.692Z,97.68
2018-11-22T03:09:56.435Z,98.16
2018-11-22T03:10:56.683Z,97.97
2018-11-22T03:11:56.665Z,98.72
2018-11-22T03:12:56.664Z,97.87
2018-11-22T03:13:56.644Z,98.25
2018-11-22T03:14:56.647Z,98.06
2018-11-22T03:15:56.634Z,98.44
2018-11-22T03:16:56.610Z,98.63
2018-11-22T03:17:56.630Z,97.68
2018-11-22T03:18:56.596Z,98.44
2018-11-22T03:19:56.600Z,97.97
2018-11-22T03:20:56.825Z,98.25
2018-11-22T03:21:56.309Z,97.87
2018-11-22T03:22:56.556Z,98.06
2018-11-22T03:23:56.551Z,98.06
2018-11-22T03:24:56.571Z,98.72
2018-11-22T03:25:56.525Z,98.44
2018-11-22T03:26:56.534Z,98.72
2018-11-22T03:27:56.515Z,98.35
2018-11-22T03:28:56.502Z,98.82
2018-11-22T03:29:56.496Z,98.63
2018-11-22T03:30:56.486Z,98.54
2018-11-22T03:31:56.473Z,98.54
2018-11-22T03:32:56.459Z,98.91
2018-11-22T03:33:56.459Z,98.63
2018-11-22T03:34:56.452Z,98.44
2018-11-22T03:35:56.434Z,99.1
2018-11-22T03:36:56.446Z,98.54
2018-11-22T03:37:56.179Z,98.91
2018-11-22T03:38:56.416Z,98.91
2018-11-22T03:39:56.153Z,98.72
2018-11-22T03:40:56.386Z,98.44
2018-11-22T03:41:56.119Z,98.44
2018-11-22T03:42:56.365Z,98.63
2018-11-22T03:43:56.360Z,98.63
2018-11-22T03:44:56.086Z,98.44
2018-11-22T03:45:56.337Z,99.1
2018-11-22T03:46:56.324Z,98.72
2018-11-22T03:47:56.323Z,98.63
2018-11-22T03:48:56.311Z,99.1
2018-11-22T03:49:56.309Z,98.63
2018-11-22T03:50:56.032Z,98.91
2018-11-22T03:51:56.270Z,98.82
2018-11-22T03:52:56.269Z,98.44
2018-11-22T03:53:56.265Z,98.72
2018-11-22T03:54:56.247Z,98.72
2018-11-22T03:55:56.247Z,98.06
2018-11-22T03:56:56.244Z,97.87
2018-11-22T03:57:55.965Z,98.06
2018-11-22T03:58:56.229Z,97.97
2018-11-22T03:59:56.228Z,97.87
2018-11-22T04:00:55.938Z,97.97
2018-11-22T04:01:56.182Z,98.16
2018-11-22T04:02:56.183Z,97.78
2018-11-22T04:03:55.904Z,97.59
2018-11-22T04:04:55.897Z,97.97
2018-11-22T04:05:56.146Z,98.16
2018-11-22T04:06:56.141Z,97.78
2018-11-22T04:07:56.147Z,97.87
2018-11-22T04:08:56.115Z,99.01
2018-11-22T04:09:56.114Z,98.63
2018-11-22T04:10:56.093Z,99.2
2018-11-22T04:11:55.833Z,98.35
2018-11-22T04:12:56.232Z,99.2
2018-11-22T04:13:56.067Z,98.35
2018-11-22T04:14:56.199Z,98.54
2018-11-22T04:15:56.050Z,98.63
2018-11-22T04:16:55.782Z,98.44
2018-11-22T04:17:56.035Z,97.87
2018-11-22T04:18:56.015Z,98.16
2018-11-22T04:19:56.013Z,98.16
2018-11-22T04:20:56.019Z,98.06
2018-11-22T04:21:55.988Z,97.87
2018-11-22T04:22:55.975Z,98.06
2018-11-22T04:23:55.971Z,97.87
2018-11-22T04:24:55.962Z,97.78
2018-11-22T04:25:55.705Z,97.97
2018-11-22T04:26:55.943Z,97.78
2018-11-22T04:27:55.928Z,98.25
2018-11-22T04:28:55.923Z,98.06
2018-11-22T04:29:55.920Z,98.54
2018-11-22T04:30:55.896Z,98.44
2018-11-22T04:31:55.888Z,98.72
2018-11-22T04:32:55.879Z,98.63
2018-11-22T04:33:55.869Z,98.63
2018-11-22T04:34:55.865Z,98.82
2018-11-22T04:35:55.869Z,98.63
2018-11-22T04:36:55.584Z,98.35
2018-11-22T04:37:55.830Z,98.82
2018-11-22T04:38:55.818Z,98.91
2018-11-22T04:39:55.811Z,98.63
2018-11-22T04:40:55.824Z,98.35
2018-11-22T04:41:55.535Z,99.01
2018-11-22T04:42:55.780Z,98.91
2018-11-22T04:43:55.774Z,99.01
2018-11-22T04:44:55.782Z,98.54
2018-11-22T04:45:55.755Z,98.72
2018-11-22T04:46:55.759Z,98.72
2018-11-22T04:47:55.740Z,98.06
2018-11-22T04:48:55.734Z,97.78
2018-11-22T04:49:55.719Z,98.06
2018-11-22T04:50:55.708Z,97.68
2018-11-22T04:51:58.912Z,98.16
2018-11-22T04:52:55.711Z,97.21
2018-11-22T04:53:55.679Z,97.21
2018-11-22T04:54:55.680Z,97.97
2018-11-22T04:55:55.660Z,98.16
2018-11-22T04:56:55.395Z,98.06
2018-11-22T04:58:00.480Z,98.44
2018-11-22T04:58:55.649Z,98.06
2018-11-22T04:59:55.629Z,98.35
2018-11-22T05:00:55.613Z,98.63
2018-11-22T05:01:55.600Z,98.82
2018-11-22T05:02:55.592Z,98.63
2018-11-22T05:03:55.592Z,98.35
2018-11-22T05:04:55.574Z,98.54
2018-11-22T05:05:55.594Z,98.44
2018-11-22T05:06:55.567Z,98.06
2018-11-22T05:07:55.564Z,98.06
2018-11-22T05:08:55.537Z,97.87
2018-11-22T05:09:55.522Z,97.87
2018-11-22T05:10:55.519Z,97.78
2018-11-22T05:11:55.523Z,98.16
2018-11-22T05:12:55.503Z,97.68
2018-11-22T05:13:55.485Z,97.97
2018-11-22T05:14:55.222Z,97.97
2018-11-22T05:15:55.468Z,97.59
2018-11-22T05:16:55.215Z,97.78
2018-11-22T05:17:55.452Z,97.87
2018-11-22T05:18:55.441Z,97.78
2018-11-22T05:19:55.176Z,97.78
2018-11-22T05:20:55.426Z,97.97
2018-11-22T05:21:55.160Z,97.68
2018-11-22T05:22:55.404Z,97.87
2018-11-22T05:23:55.392Z,98.06
2018-11-22T05:24:55.405Z,98.06
2018-11-22T05:25:55.489Z,97.97
2018-11-22T05:26:55.371Z,98.54
2018-11-22T05:27:55.350Z,98.44
2018-11-22T05:28:55.356Z,98.63
2018-11-22T05:29:55.078Z,98.72
2018-11-22T05:30:55.325Z,98.63
2018-11-22T05:31:55.315Z,98.63
2018-11-22T05:32:55.303Z,98.91
2018-11-22T05:33:55.041Z,98.72
2018-11-22T05:34:55.286Z,98.25
2018-11-22T05:35:55.281Z,98.35
2018-11-22T05:36:55.273Z,98.63
2018-11-22T05:37:55.255Z,97.59
2018-11-22T05:38:55.247Z,98.35
2018-11-22T05:39:54.982Z,98.06
2018-11-22T05:40:55.251Z,98.16
2018-11-22T05:41:55.217Z,98.63
2018-11-22T05:42:55.207Z,98.63
2018-11-22T05:43:55.202Z,98.54
2018-11-22T05:44:55.201Z,98.82
2018-11-22T05:45:55.203Z,98.63
2018-11-22T05:46:55.173Z,98.54
2018-11-22T05:47:55.171Z,98.63
2018-11-22T05:48:55.158Z,98.72
2018-11-22T05:49:55.148Z,98.91
2018-11-22T05:50:55.135Z,98.44
2018-11-22T05:51:55.122Z,98.72
2018-11-22T05:52:55.114Z,98.91
2018-11-22T05:53:55.109Z,98.72
2018-11-22T05:54:55.136Z,98.91
2018-11-22T05:55:55.098Z,98.91
2018-11-22T05:56:54.821Z,98.82
2018-11-22T05:57:54.815Z,98.54
2018-11-22T05:58:55.057Z,98.63
2018-11-22T05:59:55.057Z,98.72
2018-11-22T06:00:55.046Z,98.72
2018-11-22T06:01:54.777Z,98.91
2018-11-22T06:02:55.021Z,98.54
2018-11-22T06:03:55.017Z,98.72
2018-11-22T06:04:54.746Z,98.35
2018-11-22T06:05:55.000Z,98.91
2018-11-22T06:06:55.011Z,98.72
2018-11-22T06:07:54.971Z,98.63
2018-11-22T06:08:54.963Z,98.82
2018-11-22T06:09:54.692Z,98.82
2018-11-22T06:10:54.943Z,99.01
2018-11-22T06:11:54.935Z,98.91
2018-11-22T06:12:54.923Z,98.44
2018-11-22T06:13:54.910Z,98.72
2018-11-22T06:14:54.660Z,98.54
2018-11-22T06:15:54.897Z,98.44
2018-11-22T06:16:54.895Z,99.48
2018-11-22T06:17:54.881Z,99.39
2018-11-22T06:18:54.891Z,99.39
2018-11-22T06:19:54.605Z,98.35
2018-11-22T06:20:54.886Z,98.25
2018-11-22T06:21:54.861Z,98.44
2018-11-22T06:22:55.677Z,98.72
2018-11-22T06:23:54.829Z,98.72
2018-11-22T06:24:54.815Z,98.91
2018-11-22T06:25:54.809Z,98.63
2018-11-22T06:26:54.813Z,98.35
2018-11-22T06:27:54.800Z,98.44
2018-11-22T06:28:54.769Z,98.63
2018-11-22T06:29:54.782Z,99.01
2018-11-22T06:30:54.765Z,98.72
2018-11-22T06:31:54.483Z,99.29
2018-11-22T06:32:54.770Z,99.58
2018-11-22T06:33:54.741Z,99.48
2018-11-22T06:34:54.574Z,99.39
2018-11-22T06:35:54.708Z,99.58
2018-11-22T06:36:54.435Z,99.99
2018-11-22T06:37:54.683Z,99.67
2018-11-22T06:38:54.415Z,99.99
2018-11-22T06:39:54.678Z,99.86
2018-11-22T06:40:54.648Z,99.99
2018-11-22T06:41:54.641Z,99.96
2018-11-22T06:42:54.636Z,99.86
2018-11-22T06:43:54.630Z,99.99
2018-11-22T06:44:54.359Z,99.99
2018-11-22T06:45:54.610Z,99.99
2018-11-22T06:46:54.600Z,99.99
2018-11-22T06:47:54.336Z,99.99
2018-11-22T06:48:54.597Z,99.99
2018-11-22T06:49:54.565Z,99.99
2018-11-22T06:50:58.132Z,99.99
2018-11-22T06:51:54.309Z,99.96
2018-11-22T06:52:54.527Z,99.86
2018-11-22T06:53:54.515Z,99.99
2018-11-22T06:54:54.257Z,99.77
2018-11-22T06:55:54.512Z,99.99
2018-11-22T06:56:54.241Z,99.99
2018-11-22T06:57:54.483Z,99.67
2018-11-22T06:58:54.481Z,99.29
2018-11-22T06:59:54.456Z,99.39
2018-11-22T07:00:54.449Z,99.39
2018-11-22T07:01:54.206Z,99.39
2018-11-22T07:02:54.430Z,99.01
2018-11-22T07:03:54.432Z,98.35
2018-11-22T07:04:54.412Z,98.72
2018-11-22T07:05:54.410Z,98.54
2018-11-22T07:06:54.137Z,98.44
2018-11-22T07:07:54.383Z,98.25
2018-11-22T07:08:54.389Z,98.16
2018-11-22T07:09:54.374Z,97.78
2018-11-22T07:10:54.358Z,98.06
2018-11-22T07:11:54.346Z,98.06
2018-11-22T07:12:54.340Z,97.87
2018-11-22T07:13:54.329Z,97.59
2018-11-22T07:14:54.320Z,97.59
2018-11-22T07:15:54.312Z,97.83
2018-11-22T07:16:54.302Z,97.49
2018-11-22T07:17:54.295Z,97.64
2018-11-22T07:18:54.276Z,97.07
2018-11-22T07:19:54.275Z,97.45
2018-11-22T07:20:54.279Z,97.16
2018-11-22T07:21:54.267Z,97.16
2018-11-22T07:22:54.246Z,96.59
2018-11-22T07:23:53.976Z,97.35
2018-11-22T07:24:54.240Z,96.59
2018-11-22T07:25:54.222Z,95.84
2018-11-22T07:26:54.220Z,95.45
2018-11-22T07:27:54.197Z,94.04
2018-11-22T07:28:54.187Z,93.8
2018-11-22T07:29:54.178Z,93.94
2018-11-22T07:30:54.176Z,94.13
2018-11-22T07:31:53.929Z,94.13
2018-11-22T07:32:54.151Z,94.32
2018-11-22T07:33:54.147Z,93.56
2018-11-22T07:34:54.147Z,93.46
2018-11-22T07:35:54.117Z,93.75
2018-11-22T07:36:53.857Z,93.94
2018-11-22T07:37:54.112Z,94.32
2018-11-22T07:38:53.839Z,94.32
2018-11-22T07:39:54.099Z,93.94
2018-11-22T07:40:54.076Z,94.13
2018-11-22T07:41:53.847Z,94.23
2018-11-22T07:42:54.059Z,94.32
2018-11-22T07:43:54.127Z,94.51
2018-11-22T07:44:53.787Z,94.13
2018-11-22T07:45:54.042Z,94.23
2018-11-22T07:46:54.025Z,94.13
2018-11-22T07:47:53.764Z,94.13
2018-11-22T07:48:53.750Z,94.04
2018-11-22T07:49:53.746Z,93.56
2018-11-22T07:50:53.997Z,93.84
2018-11-22T07:51:54.002Z,93.84
2018-11-22T07:52:55.981Z,94.04
2018-11-22T07:53:53.968Z,92.99
2018-11-22T07:54:53.965Z,93.27
2018-11-22T07:55:53.704Z,92.8
2018-11-22T07:56:53.949Z,92.57
2018-11-22T07:57:54.049Z,92.38
2018-11-22T07:58:53.923Z,92.42
2018-11-22T07:59:53.720Z,92.57
2018-11-22T08:00:53.916Z,92.47
2018-11-22T08:01:53.897Z,91.9
2018-11-22T08:02:53.630Z,91.52
2018-11-22T08:03:53.878Z,90.86
2018-11-22T08:04:53.903Z,91.14
2018-11-22T08:05:53.743Z,91.14
2018-11-22T08:06:53.858Z,91.61
2018-11-22T08:07:53.850Z,91.14
2018-11-22T08:08:53.587Z,91.24
2018-11-22T08:09:53.830Z,91.52
2018-11-22T08:10:53.562Z,91.05
2018-11-22T08:11:53.816Z,90
2018-11-22T08:12:54.010Z,89.62
2018-11-22T08:13:53.788Z,90
2018-11-22T08:14:53.796Z,89.72
2018-11-22T08:15:53.523Z,89.72
2018-11-22T08:16:53.768Z,90.67
2018-11-22T08:17:53.760Z,90.57
2018-11-22T08:18:53.768Z,90.48
2018-11-22T08:19:53.755Z,90.57
2018-11-22T08:20:53.478Z,90.67
2018-11-22T08:21:53.728Z,90.48
2018-11-22T08:22:53.719Z,89.91
2018-11-22T08:23:55.565Z,90.1
2018-11-22T08:24:53.725Z,88.96
2018-11-22T08:25:53.710Z,87.39
2018-11-22T08:26:53.692Z,87.3
2018-11-22T08:27:53.692Z,86.82
2018-11-22T08:28:53.675Z,87.25
2018-11-22T08:29:53.673Z,87.49
2018-11-22T08:30:53.672Z,87.11
2018-11-22T08:31:53.650Z,87.39
2018-11-22T08:32:55.150Z,86.72
2018-11-22T08:33:53.387Z,86.44
2018-11-22T08:34:53.639Z,86.54
2018-11-22T08:35:53.636Z,86.25
2018-11-22T08:36:53.357Z,86.35
2018-11-22T08:37:53.639Z,86.16
2018-11-22T08:38:53.641Z,85.97
2018-11-22T08:39:53.606Z,86.07
2018-11-22T08:40:53.596Z,86.16
2018-11-22T08:41:53.319Z,85.87
2018-11-22T08:42:57.602Z,85.78
2018-11-22T08:43:53.565Z,86.16
2018-11-22T08:44:53.567Z,86.63
2018-11-22T08:45:53.296Z,85.97
2018-11-22T08:46:53.540Z,85.97
2018-11-22T08:47:53.541Z,85.87
2018-11-22T08:48:53.549Z,86.16
2018-11-22T08:49:53.499Z,85.87
2018-11-22T08:50:53.266Z,86.72
2018-11-22T08:51:53.512Z,86.07
2018-11-22T08:52:53.494Z,86.16
2018-11-22T08:53:53.494Z,85.97
2018-11-22T08:54:53.493Z,86.07
2018-11-22T08:55:53.214Z,86.25
2018-11-22T08:56:53.222Z,86.25
2018-11-22T08:57:53.551Z,86.44
2018-11-22T08:58:53.660Z,85.87
2018-11-22T08:59:53.244Z,85.97
2018-11-22T09:00:53.445Z,85.68
2018-11-22T09:01:53.431Z,86.07
2018-11-22T09:02:53.415Z,86.25
2018-11-22T09:03:53.417Z,86.59
2018-11-22T09:04:53.490Z,86.78
2018-11-22T09:05:53.406Z,86.97
2018-11-22T09:06:53.422Z,87.45
2018-11-22T09:07:53.150Z,87.82
2018-11-22T09:08:53.371Z,87.82
2018-11-22T09:09:53.358Z,88.29
2018-11-22T09:10:53.355Z,88.29
2018-11-22T09:11:53.342Z,88.29
2018-11-22T09:12:53.102Z,88.01
2018-11-22T09:13:53.334Z,87.16
2018-11-22T09:14:53.336Z,87.25
2018-11-22T09:15:53.307Z,87.73
2018-11-22T09:16:53.067Z,87.92
2018-11-22T09:17:53.312Z,87.82
2018-11-22T09:18:53.039Z,87.63
2018-11-22T09:19:53.279Z,87.92
2018-11-22T09:20:53.282Z,87.82
2018-11-22T09:21:53.286Z,88.2
2018-11-22T09:22:53.259Z,88.01
2018-11-22T09:23:53.247Z,88.01
2018-11-22T09:24:53.240Z,87.96
2018-11-22T09:25:53.254Z,87.82
2018-11-22T09:26:52.982Z,87.96
2018-11-22T09:27:53.216Z,87.87
2018-11-22T09:28:53.218Z,87.49
2018-11-22T09:29:53.215Z,87.3
2018-11-22T09:30:53.190Z,87.2
2018-11-22T09:31:53.814Z,87.01
2018-11-22T09:32:53.180Z,87.3
2018-11-22T09:33:53.229Z,87.01
2018-11-22T09:34:53.162Z,86.63
2018-11-22T09:35:53.157Z,86.25
2018-11-22T09:36:52.895Z,86.16
2018-11-22T09:37:53.145Z,86.25
2018-11-22T09:38:53.135Z,87.01
2018-11-22T09:39:53.126Z,87.3
2018-11-22T09:40:53.110Z,87.58
2018-11-22T09:41:53.104Z,87.01
2018-11-22T09:42:53.101Z,87.3
2018-11-22T09:43:53.089Z,86.72
2018-11-22T09:44:53.072Z,86.72
2018-11-22T09:45:52.840Z,86.63
2018-11-22T09:46:53.060Z,86.16
2018-11-22T09:47:53.060Z,85.78
2018-11-22T09:48:53.315Z,85.59
2018-11-22T09:49:53.038Z,85.4
2018-11-22T09:50:52.804Z,85.16
2018-11-22T09:51:53.027Z,85.02
2018-11-22T09:52:52.793Z,84.78
2018-11-22T09:53:52.760Z,84.4
2018-11-22T09:54:53.258Z,84.11
2018-11-22T09:55:52.997Z,84.01
2018-11-22T09:56:52.742Z,84.21
2018-11-22T09:57:52.727Z,83.64
2018-11-22T09:58:52.973Z,84.11
2018-11-22T09:59:52.721Z,84.4
2018-11-22T10:00:52.951Z,84.11
2018-11-22T10:01:52.958Z,84.3
2018-11-22T10:02:53.022Z,84.01
2018-11-22T10:03:52.929Z,84.21
2018-11-22T10:04:53.288Z,84.3
2018-11-22T10:05:53.225Z,84.4
2018-11-22T10:06:52.915Z,83.83
2018-11-22T10:07:52.901Z,84.01
2018-11-22T10:08:52.894Z,83.92
2018-11-22T10:09:52.884Z,84.21
2018-11-22T10:10:52.878Z,83.73
2018-11-22T10:11:52.888Z,83.36
2018-11-22T10:12:52.870Z,83.92
2018-11-22T10:13:52.854Z,83.92
2018-11-22T10:14:52.850Z,84.11
2018-11-22T10:15:52.595Z,84.21
2018-11-22T10:16:52.912Z,84.4
2018-11-22T10:17:52.827Z,84.21
2018-11-22T10:18:52.820Z,83.54
2018-11-22T10:19:52.824Z,83.54
2018-11-22T10:20:52.555Z,84.11
2018-11-22T10:21:52.804Z,83.45
2018-11-22T10:22:52.798Z,83.36
2018-11-22T10:23:52.998Z,84.3
2018-11-22T10:24:54.676Z,86.68
2018-11-22T10:25:52.766Z,86.77
2018-11-22T10:26:52.517Z,86.01
2018-11-22T10:27:52.752Z,88.1
2018-11-22T10:28:52.750Z,86.58
2018-11-22T10:29:52.759Z,86.2
2018-11-22T10:30:52.741Z,86.2
2018-11-22T10:31:52.845Z,84.97
2018-11-22T10:32:52.721Z,84.3
2018-11-22T10:33:52.722Z,83.64
2018-11-22T10:34:52.705Z,83.07
2018-11-22T10:35:52.703Z,82.21
2018-11-22T10:36:52.689Z,82.69
2018-11-22T10:37:52.723Z,83.26
2018-11-22T10:38:52.671Z,83.54
2018-11-22T10:39:52.662Z,83.83
2018-11-22T10:40:52.410Z,83.45
2018-11-22T10:41:52.398Z,83.64
2018-11-22T10:42:52.695Z,83.54
2018-11-22T10:43:52.650Z,83.26
2018-11-22T10:44:52.637Z,83.45
2018-11-22T10:45:52.622Z,83.54
2018-11-22T10:46:52.613Z,83.45
2018-11-22T10:47:52.376Z,83.11
2018-11-22T10:48:52.603Z,83.01
2018-11-22T10:49:53.892Z,83.49
2018-11-22T10:50:52.585Z,84.01
2018-11-22T10:51:52.587Z,84.06
2018-11-22T10:52:52.577Z,84.25
2018-11-22T10:53:52.319Z,84.06
2018-11-22T10:54:52.566Z,82.45
2018-11-22T10:55:52.605Z,82.92
2018-11-22T10:56:52.558Z,83.68
2018-11-22T10:57:56.433Z,84.91
2018-11-22T10:58:52.527Z,85.01
2018-11-22T10:59:52.518Z,84.34
2018-11-22T11:00:52.273Z,83.97
2018-11-22T11:01:52.511Z,83.39
2018-11-22T11:02:52.501Z,82.35
2018-11-22T11:03:52.493Z,82.26
2018-11-22T11:04:52.484Z,81.59
2018-11-22T11:05:52.479Z,81.87
2018-11-22T11:06:52.224Z,81.21
2018-11-22T11:07:52.486Z,81.4
2018-11-22T11:08:52.459Z,84.44
2018-11-22T11:09:52.465Z,83.39
2018-11-22T11:10:52.453Z,83.39
2018-11-22T11:11:52.440Z,82.92
2018-11-22T11:12:52.439Z,82.92
2018-11-22T11:13:52.426Z,82.45
2018-11-22T11:14:52.511Z,83.78
2018-11-22T11:15:52.433Z,83.59
2018-11-22T11:16:52.166Z,82.64
2018-11-22T11:17:52.398Z,82.07
2018-11-22T11:18:52.390Z,82.26
2018-11-22T11:19:52.394Z,83.39
2018-11-22T11:20:52.380Z,83.39
2018-11-22T11:21:52.438Z,82.26
2018-11-22T11:22:52.365Z,81.68
2018-11-22T11:23:52.350Z,81.21
2018-11-22T11:24:52.369Z,81.12
2018-11-22T11:25:52.337Z,81.3
2018-11-22T11:26:52.374Z,81.73
2018-11-22T11:27:52.345Z,81.4
2018-11-22T11:28:52.327Z,81.16
2018-11-22T11:29:52.066Z,81.12
2018-11-22T11:30:52.059Z,80.3
2018-11-22T11:31:52.302Z,79.92
2018-11-22T11:32:52.288Z,79.92
2018-11-22T11:33:52.295Z,79.54
2018-11-22T11:34:52.276Z,80.02
2018-11-22T11:35:52.277Z,80.45
2018-11-22T11:36:52.274Z,82.29
2018-11-22T11:37:52.013Z,83.62
2018-11-22T11:38:52.330Z,83.15
2018-11-22T11:39:52.251Z,82.39
2018-11-22T11:40:52.246Z,80.96
2018-11-22T11:41:52.239Z,80.49
2018-11-22T11:42:52.251Z,79.79
2018-11-22T11:43:51.993Z,80.11
2018-11-22T11:44:52.216Z,80.11
2018-11-22T11:45:52.208Z,80.26
2018-11-22T11:46:51.955Z,81.59
2018-11-22T11:47:52.198Z,81.12
2018-11-22T11:48:51.939Z,81.63
2018-11-22T11:49:52.185Z,81.63
2018-11-22T11:50:52.175Z,81.73
2018-11-22T11:51:52.174Z,81.54
2018-11-22T11:52:51.915Z,80.49
2018-11-22T11:53:51.914Z,80.21
2018-11-22T11:54:52.152Z,80.3
2018-11-22T11:55:52.395Z,80.3
2018-11-22T11:56:52.147Z,80.02
2018-11-22T11:57:52.153Z,79.83
2018-11-22T11:58:52.123Z,80.02
2018-11-22T11:59:52.121Z,79.83
2018-11-22T12:00:52.103Z,79.54
2018-11-22T12:01:52.097Z,79.44
2018-11-22T12:02:52.111Z,79.25
2018-11-22T12:03:51.838Z,79.06
2018-11-22T12:04:52.089Z,79.35
2018-11-22T12:05:52.082Z,78.88
2018-11-22T12:06:52.081Z,79.06
2018-11-22T12:07:51.815Z,78.78
2018-11-22T12:08:52.096Z,78.88
2018-11-22T12:09:58.511Z,78.59
2018-11-22T12:10:52.101Z,78.59
2018-11-22T12:11:52.049Z,78.21
2018-11-22T12:12:52.052Z,78.11
2018-11-22T12:13:52.025Z,78.21
2018-11-22T12:14:52.016Z,78.02
2018-11-22T12:15:51.729Z,77.73
2018-11-22T12:16:52.024Z,78.02
2018-11-22T12:17:51.999Z,78.21
2018-11-22T12:18:52.001Z,78.97
2018-11-22T12:19:51.997Z,78.69
2018-11-22T12:20:52.029Z,78.21
2018-11-22T12:21:51.978Z,78.69
2018-11-22T12:22:51.976Z,78.59
2018-11-22T12:23:51.969Z,78.21
2018-11-22T12:24:51.962Z,78.21
2018-11-22T12:25:51.953Z,78.3
2018-11-22T12:26:51.957Z,79.25
2018-11-22T12:27:51.712Z,78.88
2018-11-22T12:28:51.690Z,79.44
2018-11-22T12:29:51.935Z,79.54
2018-11-22T12:30:51.932Z,79.96
2018-11-22T12:31:51.922Z,80.15
2018-11-22T12:32:51.914Z,79.39
2018-11-22T12:33:51.921Z,79.39
2018-11-22T12:34:51.908Z,78.72
2018-11-22T12:35:51.655Z,78.82
2018-11-22T12:36:51.893Z,80.44
2018-11-22T12:37:51.896Z,81.01
2018-11-22T12:38:51.874Z,80.24
2018-11-22T12:39:51.875Z,79.3
2018-11-22T12:40:51.865Z,78.44
2018-11-22T12:41:51.854Z,78.53
2018-11-22T12:42:51.885Z,77.77
2018-11-22T12:43:51.851Z,77.58
2018-11-22T12:44:51.848Z,77.58
2018-11-22T12:45:51.599Z,77.77
2018-11-22T12:46:51.834Z,77.68
2018-11-22T12:47:51.570Z,77.87
2018-11-22T12:48:51.818Z,77.58
2018-11-22T12:49:51.819Z,77.77
2018-11-22T12:50:51.556Z,77.68
2018-11-22T12:51:51.800Z,77.49
2018-11-22T12:52:51.801Z,77.49
2018-11-22T12:53:51.546Z,77.68
2018-11-22T12:54:51.786Z,77.49